Latest Weather Observations for Gladstone Airport

IDQ60801

Issued at 10:02 pm EST Saturday 25 April 2015 (issued every 30 minutes, with the page automatically refreshed every 10 minutes)

About weather observations | Map of weather stations | Latest weather observations for QLD | Other Formats
Station Details ID: 039326 Name: GLADSTONE AIRPORT Lat: -23.87 Lon: 151.22 Height: 16.6 m
Data from the previous 72 hours. | See also: Recent months at Gladstone Airport
Date/Time
EST
Temp
°C
App
Temp
°C
Dew
Point
Rel
Hum
%
Delta-T
°C
Wind Press
QNH
hPa
Press
MSL
hPa
Rain
since 9 am
mm
Dir
 
Spd
km/h
Gust
km/h
Spd
kts
Gust
kts
25/10:00pm 20.9 23.1 16.5 76 2.7 CALM 0 0 0 0 1011.7 1011.7 0.0
25/09:30pm 21.4 23.6 16.4 73 3.0 CALM 0 0 0 0 1011.7 1011.7 0.0
25/09:00pm 21.9 23.3 16.4 71 3.3 NNW 4 7 2 4 1011.6 1011.6 0.0
25/08:30pm 22.6 24.0 16.4 68 3.8 NNW 4 7 2 4 1011.7 1011.7 0.0
25/08:00pm 23.3 24.2 16.1 64 4.4 NW 6 7 3 4 1011.4 1011.4 0.0
25/07:30pm 23.8 24.4 15.3 59 5.1 NNW 6 7 3 4 1011.0 1011.0 0.0
25/07:00pm 24.5 24.8 14.6 54 5.9 N 6 9 3 5 1010.5 1010.4 0.0
25/06:30pm 24.9 25.1 14.7 53 6.1 NNE 7 11 4 6 1010.0 1009.9 0.0
25/06:00pm 25.7 25.6 13.9 48 7.0 NE 7 9 4 5 1009.7 1009.6 0.0
25/05:30pm 26.4 25.5 12.5 42 8.1 NNE 9 17 5 9 1009.3 1009.2 0.0
25/05:00pm 27.3 24.5 11.3 37 9.1 NE 17 20 9 11 1009.0 1008.9 0.0
25/04:30pm 28.1 25.6 12.4 37 9.1 NE 17 24 9 13 1008.7 1008.6 0.0
25/04:00pm 28.3 25.5 12.6 38 9.2 NE 19 24 10 13 1008.4 1008.3 0.0
25/03:30pm 28.2 25.1 13.3 40 8.8 NE 22 28 12 15 1008.5 1008.4 0.0
25/03:00pm 28.6 26.0 13.3 39 9.1 NE 19 22 10 12 1008.5 1008.4 0.0
25/02:30pm 29.0 27.3 14.8 42 8.6 NE 17 22 9 12 1008.5 1008.4 0.0
25/02:00pm 28.7 27.3 15.6 45 8.1 NE 17 24 9 13 1008.8 1008.7 0.0
25/01:30pm 28.2 26.6 16.1 47 7.5 NE 19 22 10 12 1009.0 1008.9 0.0
25/01:00pm 27.5 25.5 15.5 48 7.3 NE 20 26 11 14 1009.3 1009.2 0.0
25/12:30pm 29.2 28.6 13.4 38 9.4 NNE 9 15 5 8 1009.6 1009.5 0.0
25/12:00pm 28.7 28.1 13.4 39 9.1 N 9 15 5 8 1009.9 1009.8 0.0
25/11:30am 28.2 28.8 15.8 47 7.6 W 7 13 4 7 1010.4 1010.3 0.0
25/11:00am 27.8 28.0 14.8 45 7.9 N 7 13 4 7 1011.1 1011.1 0.0
25/10:30am 27.1 27.6 15.5 49 7.1 WNW 7 13 4 7 1011.5 1011.5 0.0
25/10:00am 25.8 26.6 16.4 56 5.8 WSW 7 13 4 7 1011.8 1011.8 0.0
25/09:30am 23.9 24.2 15.9 61 4.8 SSW 9 13 5 7 1012.0 1012.0 0.0
25/08:30am 20.2 20.1 15.0 72 3.1 SW 9 13 5 7 1012.2 1012.2 0.0
25/08:00am 18.5 17.8 14.4 77 2.4 SW 11 15 6 8 1012.0 1012.0 0.0
25/07:30am 17.1 15.8 13.6 80 2.0 SW 13 17 7 9 1011.9 1011.9 0.0
25/07:00am 16.1 15.5 13.4 84 1.5 SW 9 15 5 8 1011.6 1011.6 0.0
25/06:30am 15.1 14.7 13.1 88 1.1 SSW 7 11 4 6 1011.2 1011.2 0.0
25/05:30am 15.5 14.5 13.3 87 1.2 SW 11 15 6 8 1010.7 1010.6 0.0
25/05:00am 15.8 14.8 13.3 85 1.4 SW 11 13 6 7 1010.5 1010.4 0.0
25/04:30am 16.2 14.9 13.7 85 1.4 SW 13 17 7 9 1010.3 1010.2 0.0
25/04:00am 16.3 15.4 13.8 85 1.4 SSW 11 15 6 8 1010.2 1010.1 0.0
25/03:30am 16.8 16.6 13.7 82 1.8 SW 7 11 4 6 1010.3 1010.2 0.0
25/03:00am 17.2 17.2 14.1 82 1.8 SSW 7 11 4 6 1010.4 1010.3 0.0
25/02:30am 17.3 16.6 14.2 82 1.8 SSW 11 15 6 8 1010.4 1010.3 0.0
25/02:00am 17.8 18.0 14.3 80 2.0 SW 6 11 3 6 1010.6 1010.5 0.0
25/01:30am 17.3 18.3 14.2 82 1.8 SSW 2 9 1 5 1010.6 1010.5 0.0
25/01:00am 17.5 18.8 14.2 81 1.9 CALM 0 0 0 0 1010.8 1010.8 0.0
25/12:30am 17.6 18.2 14.3 81 1.9 S 4 11 2 6 1011.0 1011.0 0.0
25/12:00am 17.8 18.0 14.3 80 2.0 SSW 6 9 3 5 1011.1 1011.1 0.0
 
Date/Time
EST
Temp
°C
App
Temp
°C
Dew
Point
Rel
Hum
%
Delta-T
°C
Wind Press
QNH
hPa
Press
MSL
hPa
Rain
since 9 am
mm
Dir
 
Spd
km/h
Gust
km/h
Spd
kts
Gust
kts
24/11:30pm 18.1 17.9 14.6 80 2.0 SSW 9 11 5 6 1011.1 1011.1 0.0
24/11:00pm 18.7 20.3 15.0 79 2.2 CALM 0 0 0 0 1011.0 1011.0 0.0
24/10:30pm 18.6 20.1 14.7 78 2.3 CALM 0 0 0 0 1011.0 1011.0 0.0
24/10:00pm 19.3 21.0 15.2 77 2.4 CALM 0 0 0 0 1011.1 1011.1 0.0
24/09:30pm 19.8 21.5 15.2 75 2.7 CALM 0 0 0 0 1011.2 1011.2 0.0
24/09:00pm 20.1 21.8 15.1 73 2.9 CALM 0 0 0 0 1011.1 1011.1 0.0
24/08:30pm 20.8 22.5 15.1 70 3.4 CALM 0 0 0 0 1010.8 1010.8 0.0
24/08:00pm 21.7 23.4 15.1 66 3.9 CALM 0 0 0 0 1010.7 1010.6 0.0
24/07:30pm 22.8 23.4 15.4 63 4.4 NE 6 7 3 4 1010.3 1010.2 0.0
24/07:00pm 23.0 23.6 15.3 62 4.6 NNE 6 7 3 4 1009.9 1009.8 0.0
24/06:30pm 23.4 23.7 14.9 59 5.1 N 7 11 4 6 1009.6 1009.5 0.0
24/06:00pm 24.0 23.0 14.7 56 5.5 NNE 13 17 7 9 1009.2 1009.1 0.0
24/05:30pm 24.4 23.5 13.6 51 6.3 NNE 11 17 6 9 1008.9 1008.8 0.0
24/05:00pm 25.1 23.9 13.9 49 6.6 NNE 13 17 7 9 1008.6 1008.5 0.0
24/04:30pm 25.1 23.2 14.3 51 6.4 NE 17 22 9 12 1008.4 1008.3 0.0
24/04:00pm 25.5 23.4 13.7 48 7.0 NNE 17 22 9 12 1008.1 1008.0 0.0
24/03:30pm 25.9 23.5 13.7 47 7.2 NNE 19 24 10 13 1008.2 1008.1 0.0
24/03:00pm 26.2 23.7 14.0 47 7.3 NE 20 28 11 15 1008.3 1008.2 0.0
24/02:30pm 26.3 23.8 14.1 47 7.3 NE 20 30 11 16 1008.2 1008.1 0.0
24/02:00pm 27.4 26.0 12.2 39 8.8 ENE 11 17 6 9 1008.4 1008.3 0.0
24/01:30pm 28.7 26.9 9.4 30 10.7 WSW 9 17 5 9 1008.5 1008.4 0.0
24/01:00pm 28.2 27.5 11.3 35 9.7 E 6 9 3 5 1009.0 1008.9 0.0
24/12:30pm 27.3 26.0 11.3 37 9.1 WSW 9 17 5 9 1009.6 1009.5 0.0
24/12:00pm 26.8 25.9 11.3 38 8.8 SW 7 13 4 7 1010.1 1010.0 0.0
24/11:30am 26.0 25.3 12.1 42 8.0 ESE 7 11 4 6 1010.6 1010.5 0.0
24/11:00am 25.5 24.5 12.4 44 7.6 S 9 17 5 9 1011.0 1011.0 0.0
24/10:30am 25.2 24.7 12.8 46 7.2 SSW 7 15 4 8 1011.4 1011.4 0.0
24/10:00am 24.4 23.8 13.6 51 6.3 WSW 9 13 5 7 1011.9 1011.9 0.0
24/09:30am 22.8 22.1 13.3 55 5.5 SW 9 15 5 8 1011.8 1011.8 0.0
24/09:00am 21.1 19.7 13.5 62 4.4 SW 13 19 7 10 1012.3 1012.3 0.0
24/08:30am 18.2 17.0 12.9 71 3.0 SW 11 20 6 11 1012.6 1012.6 0.0
24/08:00am 17.2 16.3 12.7 75 2.5 SW 9 17 5 9 1012.3 1012.3 0.0
24/07:30am 16.0 14.7 12.4 79 2.0 SSW 11 15 6 8 1011.5 1011.5 0.0
24/07:00am 15.4 14.0 12.2 81 1.7 SW 11 15 6 8 1011.4 1011.4 0.0
24/06:30am 14.3 12.8 11.8 85 1.3 SW 11 17 6 9 1011.2 1011.2 0.0
24/06:00am 14.3 12.3 11.6 84 1.4 SW 13 17 7 9 1011.0 1011.0 0.0
24/05:30am 14.3 12.8 11.8 85 1.3 SW 11 15 6 8 1010.7 1010.6 0.0
24/05:00am 14.3 13.2 11.8 85 1.3 SW 9 15 5 8 1010.7 1010.6 0.0
24/04:30am 14.3 13.1 11.6 84 1.4 SW 9 13 5 7 1010.5 1010.4 0.0
24/04:00am 14.6 13.4 11.6 82 1.6 SW 9 13 5 7 1010.6 1010.5 0.0
24/03:30am 15.2 13.7 11.8 80 1.8 SSW 11 15 6 8 1010.5 1010.4 0.0
24/03:00am 15.1 13.6 11.9 81 1.7 SW 11 17 6 9 1010.6 1010.5 0.0
24/02:30am 15.2 13.7 11.8 80 1.8 SSW 11 15 6 8 1010.7 1010.6 0.0
24/02:00am 15.8 14.3 12.0 78 2.1 SW 11 17 6 9 1011.1 1011.1 0.0
24/01:30am 16.1 15.6 11.9 76 2.3 SSW 6 9 3 5 1011.1 1011.1 0.0
24/01:00am 16.6 15.1 11.9 74 2.6 SW 11 15 6 8 1011.1 1011.1 0.0
24/12:30am 17.0 15.9 12.1 73 2.7 SSW 9 11 5 6 1011.6 1011.6 0.0
24/12:00am 16.9 15.8 12.0 73 2.7 SSW 9 11 5 6 1011.8 1011.8 0.0
 
Date/Time
EST
Temp
°C
App
Temp
°C
Dew
Point
Rel
Hum
%
Delta-T
°C
Wind Press
QNH
hPa
Press
MSL
hPa
Rain
since 9 am
mm
Dir
 
Spd
km/h
Gust
km/h
Spd
kts
Gust
kts
23/11:30pm 17.6 16.5 12.1 70 3.0 SW 9 11 5 6 1011.9 1011.9 0.0
23/11:00pm 17.4 16.9 12.1 71 2.9 SSW 6 9 3 5 1012.0 1012.0 0.0
23/10:30pm 17.9 17.3 12.4 70 3.1 S 7 9 4 5 1012.1 1012.1 0.0
23/10:00pm 17.9 17.0 12.6 71 3.0 SW 9 13 5 7 1012.0 1012.0 0.0
23/09:30pm 17.8 18.6 12.7 72 2.8 CALM 0 0 0 0 1011.9 1011.9 0.0
23/09:00pm 18.3 19.1 12.7 70 3.1 CALM 0 0 0 0 1011.8 1011.8 0.0
23/08:30pm 18.7 19.5 12.5 67 3.5 CALM 0 0 0 0 1011.8 1011.8 0.0
23/08:00pm 20.2 21.0 12.7 62 4.2 CALM 0 0 0 0 1011.5 1011.5 0.0
23/07:30pm 21.0 20.6 12.4 58 4.8 N 6 7 3 4 1011.3 1011.3 0.0
23/07:00pm 21.0 20.4 12.4 58 4.9 N 7 9 4 5 1010.9 1010.9 0.0
23/06:30pm 21.6 20.6 12.2 55 5.3 NNE 9 13 5 7 1010.3 1010.2 0.0
23/06:00pm 22.0 20.9 12.0 53 5.6 NNE 9 13 5 7 1010.1 1010.0 0.0
23/05:30pm 22.3 20.8 12.0 52 5.8 NE 11 15 6 8 1009.9 1009.8 0.0
23/05:00pm 22.9 20.6 11.9 50 6.2 NNE 15 17 8 9 1009.5 1009.4 0.0
23/04:30pm 23.7 21.9 12.0 48 6.6 NE 13 17 7 9 1009.3 1009.2 0.0
23/04:00pm 24.0 21.8 12.0 47 6.8 NE 15 19 8 10 1009.1 1009.0 0.0
23/03:30pm 24.6 22.5 12.5 46 7.0 NE 15 19 8 10 1009.2 1009.1 0.0
23/03:00pm 25.2 23.4 12.1 44 7.5 ENE 13 20 7 11 1009.3 1009.2 0.0
23/02:30pm 25.0 22.7 11.9 44 7.5 NE 15 19 8 10 1009.5 1009.4 0.0
23/02:00pm 24.3 22.9 10.9 43 7.5 E 9 15 5 8 1009.6 1009.5 0.0
23/01:30pm 23.9 21.4 10.9 44 7.2 NE 15 22 8 12 1010.2 1010.1 0.0
23/01:00pm 24.7 22.7 11.6 44 7.4 NNE 13 22 7 12 1010.8 1010.8 0.0
23/12:30pm 24.8 23.4 8.7 36 8.7 N 6 11 3 6 1011.6 1011.6 0.0
23/12:00pm 24.2 22.2 8.6 37 8.4 S 9 17 5 9 1012.2 1012.2 0.0
23/11:30am 23.9 21.3 9.5 40 7.8 SSE 13 22 7 12 1012.8 1012.8 0.0
23/11:00am 23.3 21.1 9.3 41 7.6 SSW 11 19 6 10 1013.3 1013.3 0.0
23/10:30am 22.6 19.7 9.7 44 7.0 S 15 26 8 14 1013.7 1013.7 0.0
23/10:00am 21.8 19.8 10.3 48 6.3 SSE 11 19 6 10 1014.1 1014.1 0.0
23/09:30am 20.5 18.2 10.3 52 5.5 S 13 17 7 9 1014.4 1014.4 0.0
23/09:00am 19.1 18.1 10.9 59 4.5 WSW 7 11 4 6 1014.5 1014.5 0.0
23/08:30am 18.0 16.5 10.6 62 4.0 SW 9 11 5 6 1014.4 1014.4 0.0
23/08:00am 16.6 15.5 10.5 67 3.2 SSW 7 9 4 5 1014.3 1014.3 0.0
23/07:30am 14.4 13.1 9.8 74 2.4 S 7 11 4 6 1014.2 1014.2 0.0
23/07:00am 13.6 12.2 9.6 77 2.0 SSW 7 11 4 6 1013.7 1013.7 0.0
23/06:30am 12.5 12.0 9.3 81 1.6 S 2 7 1 4 1013.5 1013.5 0.0
23/06:00am 12.3 10.5 9.3 82 1.5 SSW 9 13 5 7 1013.2 1013.2 0.0
23/05:30am 12.8 11.4 9.4 80 1.7 SSW 7 11 4 6 1012.7 1012.7 0.0
23/05:00am 13.1 11.9 9.5 79 1.8 SSW 6 9 3 5 1012.4 1012.4 0.0
23/04:30am 12.9 11.2 9.7 81 1.6 SW 9 11 5 6 1012.2 1012.2 0.0
23/04:00am 13.8 12.1 9.8 77 2.1 SW 9 13 5 7 1012.0 1012.0 0.0
23/03:30am 13.9 12.3 10.1 78 2.0 SW 9 11 5 6 1012.0 1012.0 0.0
23/03:00am 13.9 12.4 10.7 81 1.7 SW 9 13 5 7 1012.1 1012.1 0.0
23/02:30am 14.1 12.4 11.1 82 1.6 SW 11 15 6 8 1012.3 1012.3 0.0
23/02:00am 14.2 13.4 11.0 81 1.7 SSW 6 9 3 5 1012.5 1012.5 0.0
23/01:30am 14.4 13.5 11.4 82 1.6 SW 7 9 4 5 1012.9 1012.9 0.0
23/01:00am 14.7 13.5 11.7 82 1.6 SSW 9 11 5 6 1013.1 1013.1 0.0
23/12:30am 14.8 13.7 11.8 82 1.6 SSW 9 13 5 7 1013.4 1013.4 0.0
23/12:00am 15.0 13.9 11.8 81 1.7 SSW 9 13 5 7 1013.5 1013.5 0.0
 
Date/Time
EST
Temp
°C
App
Temp
°C
Dew
Point
Rel
Hum
%
Delta-T
°C
Wind Press
QNH
hPa
Press
MSL
hPa
Rain
since 9 am
mm
Dir
 
Spd
km/h
Gust
km/h
Spd
kts
Gust
kts
22/11:30pm 15.2 14.1 11.8 80 1.8 SW 9 15 5 8 1013.8 1013.8 0.0
22/11:00pm 15.5 14.3 11.7 78 2.1 SW 9 13 5 7 1014.1 1014.1 0.0
22/10:30pm 16.4 15.3 11.8 74 2.5 SW 9 13 5 7 1014.2 1014.2 0.0

Other Formats:

Comma delimited format used in spreadsheet applications
http://www.bom.gov.au/fwo/IDQ60801/IDQ60801.94381.axf

JavaScript Object Notation format (JSON) in row-major order
http://www.bom.gov.au/fwo/IDQ60801/IDQ60801.94381.json